sensor_id;sensor_type;location;lat;lon;timestamp;temperature;humidity
14924;DHT22;7554;43.600;1.480;2023-06-14T00:02:07;20.40;1.00
14924;DHT22;7554;43.600;1.480;2023-06-14T00:04:34;19.40;1.00
14924;DHT22;7554;43.600;1.480;2023-06-14T00:07:05;20.70;1.00
14924;DHT22;7554;43.600;1.480;2023-06-14T00:09:34;20.00;1.00
14924;DHT22;7554;43.600;1.480;2023-06-14T00:12:01;20.00;1.00
14924;DHT22;7554;43.600;1.480;2023-06-14T00:14:28;20.60;1.00
14924;DHT22;7554;43.600;1.480;2023-06-14T00:16:56;19.80;30.50
14924;DHT22;7554;43.600;1.480;2023-06-14T00:19:24;20.60;99.90
14924;DHT22;7554;43.600;1.480;2023-06-14T00:21:51;20.90;99.90
14924;DHT22;7554;43.600;1.480;2023-06-14T00:24:20;18.30;99.90
14924;DHT22;7554;43.600;1.480;2023-06-14T00:26:47;20.70;99.90
14924;DHT22;7554;43.600;1.480;2023-06-14T00:29:15;18.30;99.90
14924;DHT22;7554;43.600;1.480;2023-06-14T00:31:42;17.40;99.90
14924;DHT22;7554;43.600;1.480;2023-06-14T00:34:09;17.40;1.00
14924;DHT22;7554;43.600;1.480;2023-06-14T00:36:37;17.90;99.90
14924;DHT22;7554;43.600;1.480;2023-06-14T00:39:04;18.10;99.90
14924;DHT22;7554;43.600;1.480;2023-06-14T00:41:33;18.90;99.90
14924;DHT22;7554;43.600;1.480;2023-06-14T00:44:00;18.10;1.00
14924;DHT22;7554;43.600;1.480;2023-06-14T00:46:29;18.10;1.00
14924;DHT22;7554;43.600;1.480;2023-06-14T00:48:56;20.00;1.00
14924;DHT22;7554;43.600;1.480;2023-06-14T00:51:27;19.20;1.00
14924;DHT22;7554;43.600;1.480;2023-06-14T00:53:55;19.60;1.00
14924;DHT22;7554;43.600;1.480;2023-06-14T00:56:22;18.30;1.00
14924;DHT22;7554;43.600;1.480;2023-06-14T00:58:52;20.70;1.00
14924;DHT22;7554;43.600;1.480;2023-06-14T01:01:19;19.50;1.00
14924;DHT22;7554;43.600;1.480;2023-06-14T01:03:46;18.60;1.00
14924;DHT22;7554;43.600;1.480;2023-06-14T01:06:20;19.20;1.00
14924;DHT22;7554;43.600;1.480;2023-06-14T01:09:03;19.00;1.00
14924;DHT22;7554;43.600;1.480;2023-06-14T01:11:41;20.50;1.00
14924;DHT22;7554;43.600;1.480;2023-06-14T01:14:13;19.60;1.00
14924;DHT22;7554;43.600;1.480;2023-06-14T01:16:42;20.20;1.00
14924;DHT22;7554;43.600;1.480;2023-06-14T01:19:12;17.60;1.00
14924;DHT22;7554;43.600;1.480;2023-06-14T01:21:40;20.80;1.00
14924;DHT22;7554;43.600;1.480;2023-06-14T01:24:10;19.10;1.00
14924;DHT22;7554;43.600;1.480;2023-06-14T01:26:38;18.20;1.00
14924;DHT22;7554;43.600;1.480;2023-06-14T01:29:13;20.90;1.00
14924;DHT22;7554;43.600;1.480;2023-06-14T01:31:42;20.90;1.00
14924;DHT22;7554;43.600;1.480;2023-06-14T01:34:11;20.30;1.00
14924;DHT22;7554;43.600;1.480;2023-06-14T01:36:41;21.10;1.00
14924;DHT22;7554;43.600;1.480;2023-06-14T01:39:11;21.20;1.00
14924;DHT22;7554;43.600;1.480;2023-06-14T01:41:41;18.20;1.00
14924;DHT22;7554;43.600;1.480;2023-06-14T01:44:10;19.70;1.00
14924;DHT22;7554;43.600;1.480;2023-06-14T01:46:39;21.00;1.00
14924;DHT22;7554;43.600;1.480;2023-06-14T01:49:08;19.00;1.00
14924;DHT22;7554;43.600;1.480;2023-06-14T01:51:35;18.60;1.00
14924;DHT22;7554;43.600;1.480;2023-06-14T01:54:03;19.80;1.00
14924;DHT22;7554;43.600;1.480;2023-06-14T01:56:31;17.80;1.00
14924;DHT22;7554;43.600;1.480;2023-06-14T01:58:59;18.20;1.00
14924;DHT22;7554;43.600;1.480;2023-06-14T02:01:26;17.50;1.00
14924;DHT22;7554;43.600;1.480;2023-06-14T02:03:54;18.70;1.00
14924;DHT22;7554;43.600;1.480;2023-06-14T02:06:21;20.40;1.00
14924;DHT22;7554;43.600;1.480;2023-06-14T02:08:49;21.00;1.00
14924;DHT22;7554;43.600;1.480;2023-06-14T02:11:16;20.90;1.00
14924;DHT22;7554;43.600;1.480;2023-06-14T02:13:44;17.80;1.00
14924;DHT22;7554;43.600;1.480;2023-06-14T02:16:12;19.80;1.00
14924;DHT22;7554;43.600;1.480;2023-06-14T02:18:40;20.60;1.00
14924;DHT22;7554;43.600;1.480;2023-06-14T02:21:07;21.00;1.00
14924;DHT22;7554;43.600;1.480;2023-06-14T02:23:34;19.00;1.00
14924;DHT22;7554;43.600;1.480;2023-06-14T02:26:02;17.50;1.00
14924;DHT22;7554;43.600;1.480;2023-06-14T02:28:29;17.80;1.00
14924;DHT22;7554;43.600;1.480;2023-06-14T02:30:58;17.50;1.00
14924;DHT22;7554;43.600;1.480;2023-06-14T02:33:26;18.10;1.00
14924;DHT22;7554;43.600;1.480;2023-06-14T02:35:53;17.80;1.00
14924;DHT22;7554;43.600;1.480;2023-06-14T02:38:22;17.50;1.00
14924;DHT22;7554;43.600;1.480;2023-06-14T02:40:49;19.30;1.00
14924;DHT22;7554;43.600;1.480;2023-06-14T02:43:16;18.00;1.00
14924;DHT22;7554;43.600;1.480;2023-06-14T02:45:44;18.70;1.00
14924;DHT22;7554;43.600;1.480;2023-06-14T02:48:12;19.00;1.00
14924;DHT22;7554;43.600;1.480;2023-06-14T02:50:40;19.80;1.00
14924;DHT22;7554;43.600;1.480;2023-06-14T02:53:07;20.40;1.00
14924;DHT22;7554;43.600;1.480;2023-06-14T02:55:34;19.90;1.00
14924;DHT22;7554;43.600;1.480;2023-06-14T02:58:05;19.00;1.00
14924;DHT22;7554;43.600;1.480;2023-06-14T03:00:32;19.90;1.00
14924;DHT22;7554;43.600;1.480;2023-06-14T03:03:00;20.40;1.00
14924;DHT22;7554;43.600;1.480;2023-06-14T03:05:32;18.70;1.00
14924;DHT22;7554;43.600;1.480;2023-06-14T03:07:59;20.30;1.00
14924;DHT22;7554;43.600;1.480;2023-06-14T03:10:26;19.20;1.00
14924;DHT22;7554;43.600;1.480;2023-06-14T03:12:54;19.20;1.00
14924;DHT22;7554;43.600;1.480;2023-06-14T03:15:22;18.60;1.00
14924;DHT22;7554;43.600;1.480;2023-06-14T03:17:50;17.50;1.00
14924;DHT22;7554;43.600;1.480;2023-06-14T03:20:19;20.30;1.00
14924;DHT22;7554;43.600;1.480;2023-06-14T03:22:48;18.20;1.00
14924;DHT22;7554;43.600;1.480;2023-06-14T03:25:15;18.60;1.00
14924;DHT22;7554;43.600;1.480;2023-06-14T03:27:44;20.40;1.00
14924;DHT22;7554;43.600;1.480;2023-06-14T03:30:12;20.30;1.00
14924;DHT22;7554;43.600;1.480;2023-06-14T03:32:39;19.40;1.00
14924;DHT22;7554;43.600;1.480;2023-06-14T03:35:07;20.40;1.00
14924;DHT22;7554;43.600;1.480;2023-06-14T03:37:35;19.60;1.00
14924;DHT22;7554;43.600;1.480;2023-06-14T03:40:05;18.40;1.00
14924;DHT22;7554;43.600;1.480;2023-06-14T03:42:33;18.50;1.00
14924;DHT22;7554;43.600;1.480;2023-06-14T03:45:00;17.60;1.00
14924;DHT22;7554;43.600;1.480;2023-06-14T03:47:27;17.50;1.00
14924;DHT22;7554;43.600;1.480;2023-06-14T03:49:55;20.50;1.00
14924;DHT22;7554;43.600;1.480;2023-06-14T03:52:22;17.30;1.00
14924;DHT22;7554;43.600;1.480;2023-06-14T03:54:50;18.50;1.00
14924;DHT22;7554;43.600;1.480;2023-06-14T03:57:20;20.30;1.00
14924;DHT22;7554;43.600;1.480;2023-06-14T03:59:47;19.60;1.00
14924;DHT22;7554;43.600;1.480;2023-06-14T04:02:15;20.20;1.00
14924;DHT22;7554;43.600;1.480;2023-06-14T04:04:43;17.40;1.00
14924;DHT22;7554;43.600;1.480;2023-06-14T04:07:11;19.70;1.00
14924;DHT22;7554;43.600;1.480;2023-06-14T04:09:38;18.00;1.00
14924;DHT22;7554;43.600;1.480;2023-06-14T04:12:06;19.30;1.00
14924;DHT22;7554;43.600;1.480;2023-06-14T04:14:36;18.90;1.00
14924;DHT22;7554;43.600;1.480;2023-06-14T04:17:04;17.70;1.00
14924;DHT22;7554;43.600;1.480;2023-06-14T04:19:31;19.20;1.00
14924;DHT22;7554;43.600;1.480;2023-06-14T04:21:59;19.00;1.00
14924;DHT22;7554;43.600;1.480;2023-06-14T04:24:27;18.00;1.00
14924;DHT22;7554;43.600;1.480;2023-06-14T04:26:58;18.10;1.00
14924;DHT22;7554;43.600;1.480;2023-06-14T04:29:27;17.60;1.00
14924;DHT22;7554;43.600;1.480;2023-06-14T04:31:56;19.90;1.00
14924;DHT22;7554;43.600;1.480;2023-06-14T04:34:26;19.10;1.00
14924;DHT22;7554;43.600;1.480;2023-06-14T04:36:55;19.80;1.00
14924;DHT22;7554;43.600;1.480;2023-06-14T04:39:24;17.50;1.00
14924;DHT22;7554;43.600;1.480;2023-06-14T04:41:51;18.00;99.90
14924;DHT22;7554;43.600;1.480;2023-06-14T04:44:23;18.00;99.90
14924;DHT22;7554;43.600;1.480;2023-06-14T04:46:57;18.00;99.90
14924;DHT22;7554;43.600;1.480;2023-06-14T04:49:25;19.00;99.90
14924;DHT22;7554;43.600;1.480;2023-06-14T04:51:53;19.20;99.90
14924;DHT22;7554;43.600;1.480;2023-06-14T04:54:25;17.40;99.90
14924;DHT22;7554;43.600;1.480;2023-06-14T04:56:52;19.30;99.90
14924;DHT22;7554;43.600;1.480;2023-06-14T04:59:20;19.80;99.90
14924;DHT22;7554;43.600;1.480;2023-06-14T05:01:48;17.70;99.90
14924;DHT22;7554;43.600;1.480;2023-06-14T05:04:18;17.70;99.90
14924;DHT22;7554;43.600;1.480;2023-06-14T05:06:46;17.70;99.90
14924;DHT22;7554;43.600;1.480;2023-06-14T05:09:14;18.40;99.90
14924;DHT22;7554;43.600;1.480;2023-06-14T05:11:42;17.70;37.30
14924;DHT22;7554;43.600;1.480;2023-06-14T05:14:10;18.90;1.00
14924;DHT22;7554;43.600;1.480;2023-06-14T05:16:37;19.40;1.00
14924;DHT22;7554;43.600;1.480;2023-06-14T05:19:04;18.30;1.00
14924;DHT22;7554;43.600;1.480;2023-06-14T05:21:33;18.40;1.00
14924;DHT22;7554;43.600;1.480;2023-06-14T05:24:01;18.10;1.00
14924;DHT22;7554;43.600;1.480;2023-06-14T05:26:28;17.90;1.00
14924;DHT22;7554;43.600;1.480;2023-06-14T05:28:56;19.60;1.00
14924;DHT22;7554;43.600;1.480;2023-06-14T05:31:23;19.70;1.00
14924;DHT22;7554;43.600;1.480;2023-06-14T05:33:51;19.00;1.00
14924;DHT22;7554;43.600;1.480;2023-06-14T05:36:19;18.70;1.00
14924;DHT22;7554;43.600;1.480;2023-06-14T05:38:48;17.80;1.00
14924;DHT22;7554;43.600;1.480;2023-06-14T05:41:16;17.90;1.00
14924;DHT22;7554;43.600;1.480;2023-06-14T05:43:43;18.10;99.90
14924;DHT22;7554;43.600;1.480;2023-06-14T05:46:11;19.10;99.90
14924;DHT22;7554;43.600;1.480;2023-06-14T05:48:38;17.90;99.90
14924;DHT22;7554;43.600;1.480;2023-06-14T05:51:06;18.50;99.90
14924;DHT22;7554;43.600;1.480;2023-06-14T05:53:34;18.30;99.90
14924;DHT22;7554;43.600;1.480;2023-06-14T05:56:03;19.00;47.00
14924;DHT22;7554;43.600;1.480;2023-06-14T05:58:31;19.80;1.00
14924;DHT22;7554;43.600;1.480;2023-06-14T06:00:58;18.30;1.00
14924;DHT22;7554;43.600;1.480;2023-06-14T06:03:26;19.40;1.00
14924;DHT22;7554;43.600;1.480;2023-06-14T06:05:55;19.70;1.00
14924;DHT22;7554;43.600;1.480;2023-06-14T06:08:22;17.90;99.90
14924;DHT22;7554;43.600;1.480;2023-06-14T06:10:49;19.00;99.90
14924;DHT22;7554;43.600;1.480;2023-06-14T06:13:18;19.60;99.90
14924;DHT22;7554;43.600;1.480;2023-06-14T06:15:46;18.10;99.90
14924;DHT22;7554;43.600;1.480;2023-06-14T06:18:13;19.60;96.80
14924;DHT22;7554;43.600;1.480;2023-06-14T06:20:40;19.40;9.90
14924;DHT22;7554;43.600;1.480;2023-06-14T06:23:08;18.30;1.00
14924;DHT22;7554;43.600;1.480;2023-06-14T06:25:35;17.90;1.00
14924;DHT22;7554;43.600;1.480;2023-06-14T06:28:03;18.20;1.00
14924;DHT22;7554;43.600;1.480;2023-06-14T06:30:32;18.80;99.90
14924;DHT22;7554;43.600;1.480;2023-06-14T06:32:59;19.20;1.00
14924;DHT22;7554;43.600;1.480;2023-06-14T06:35:27;19.00;1.00
14924;DHT22;7554;43.600;1.480;2023-06-14T06:37:55;18.40;1.00
14924;DHT22;7554;43.600;1.480;2023-06-14T06:40:23;18.70;1.00
14924;DHT22;7554;43.600;1.480;2023-06-14T06:42:50;19.70;1.00
14924;DHT22;7554;43.600;1.480;2023-06-14T06:45:17;19.40;99.90
14924;DHT22;7554;43.600;1.480;2023-06-14T06:47:47;18.30;99.90
14924;DHT22;7554;43.600;1.480;2023-06-14T06:50:15;19.20;99.90
14924;DHT22;7554;43.600;1.480;2023-06-14T06:52:42;19.30;14.20
14924;DHT22;7554;43.600;1.480;2023-06-14T06:55:11;18.50;1.00
14924;DHT22;7554;43.600;1.480;2023-06-14T06:57:38;19.60;1.00
14924;DHT22;7554;43.600;1.480;2023-06-14T07:00:07;19.10;1.00
14924;DHT22;7554;43.600;1.480;2023-06-14T07:02:36;18.80;1.00
14924;DHT22;7554;43.600;1.480;2023-06-14T07:05:05;19.30;99.90
14924;DHT22;7554;43.600;1.480;2023-06-14T07:07:33;19.40;99.90
14924;DHT22;7554;43.600;1.480;2023-06-14T07:10:00;19.00;1.00
14924;DHT22;7554;43.600;1.480;2023-06-14T07:12:30;19.50;1.00
14924;DHT22;7554;43.600;1.480;2023-06-14T07:14:59;19.50;99.90
14924;DHT22;7554;43.600;1.480;2023-06-14T07:17:27;19.30;1.00
14924;DHT22;7554;43.600;1.480;2023-06-14T07:19:54;19.40;1.00
14924;DHT22;7554;43.600;1.480;2023-06-14T07:22:24;19.40;99.90
14924;DHT22;7554;43.600;1.480;2023-06-14T07:24:52;19.30;1.00
14924;DHT22;7554;43.600;1.480;2023-06-14T07:27:19;18.70;99.90
14924;DHT22;7554;43.600;1.480;2023-06-14T07:29:46;18.70;99.90
14924;DHT22;7554;43.600;1.480;2023-06-14T07:32:14;19.40;1.00
14924;DHT22;7554;43.600;1.480;2023-06-14T07:34:41;19.50;1.00
14924;DHT22;7554;43.600;1.480;2023-06-14T07:37:08;19.40;1.00
14924;DHT22;7554;43.600;1.480;2023-06-14T07:39:37;19.00;99.90
14924;DHT22;7554;43.600;1.480;2023-06-14T07:42:05;19.30;99.90
14924;DHT22;7554;43.600;1.480;2023-06-14T07:44:33;19.00;99.90
14924;DHT22;7554;43.600;1.480;2023-06-14T07:47:00;19.00;38.90
14924;DHT22;7554;43.600;1.480;2023-06-14T07:49:27;19.10;1.00
14924;DHT22;7554;43.600;1.480;2023-06-14T07:51:56;19.60;1.00
14924;DHT22;7554;43.600;1.480;2023-06-14T07:54:26;19.50;1.00
14924;DHT22;7554;43.600;1.480;2023-06-14T07:56:57;19.10;1.00
14924;DHT22;7554;43.600;1.480;2023-06-14T07:59:26;19.60;1.00
14924;DHT22;7554;43.600;1.480;2023-06-14T08:01:53;19.60;1.00
14924;DHT22;7554;43.600;1.480;2023-06-14T08:04:21;19.70;1.00
14924;DHT22;7554;43.600;1.480;2023-06-14T08:06:49;19.70;1.00
14924;DHT22;7554;43.600;1.480;2023-06-14T08:09:17;19.60;1.00
14924;DHT22;7554;43.600;1.480;2023-06-14T08:11:44;19.70;1.00
14924;DHT22;7554;43.600;1.480;2023-06-14T08:14:13;20.00;1.00
14924;DHT22;7554;43.600;1.480;2023-06-14T08:16:40;20.00;1.00
14924;DHT22;7554;43.600;1.480;2023-06-14T08:19:07;19.90;1.00
14924;DHT22;7554;43.600;1.480;2023-06-14T08:21:35;20.00;1.00
14924;DHT22;7554;43.600;1.480;2023-06-14T08:24:02;20.20;1.00
14924;DHT22;7554;43.600;1.480;2023-06-14T08:26:30;20.40;1.00
14924;DHT22;7554;43.600;1.480;2023-06-14T08:28:58;20.70;99.90
14924;DHT22;7554;43.600;1.480;2023-06-14T08:31:26;20.80;99.90
14924;DHT22;7554;43.600;1.480;2023-06-14T08:33:54;20.90;99.90
14924;DHT22;7554;43.600;1.480;2023-06-14T08:36:21;20.90;99.90
14924;DHT22;7554;43.600;1.480;2023-06-14T08:38:49;21.00;99.90
14924;DHT22;7554;43.600;1.480;2023-06-14T08:41:21;21.00;99.90
14924;DHT22;7554;43.600;1.480;2023-06-14T08:43:50;21.00;99.90
14924;DHT22;7554;43.600;1.480;2023-06-14T08:46:20;21.20;38.10
14924;DHT22;7554;43.600;1.480;2023-06-14T08:48:51;21.50;1.00
14924;DHT22;7554;43.600;1.480;2023-06-14T08:51:19;21.40;1.00
14924;DHT22;7554;43.600;1.480;2023-06-14T08:53:52;21.90;1.00
14924;DHT22;7554;43.600;1.480;2023-06-14T08:56:24;21.90;1.00
14924;DHT22;7554;43.600;1.480;2023-06-14T08:58:53;22.10;1.00
14924;DHT22;7554;43.600;1.480;2023-06-14T09:01:21;23.20;1.00
14924;DHT22;7554;43.600;1.480;2023-06-14T09:03:50;23.60;1.00
14924;DHT22;7554;43.600;1.480;2023-06-14T09:06:17;24.60;1.00
14924;DHT22;7554;43.600;1.480;2023-06-14T09:08:49;25.20;1.00
14924;DHT22;7554;43.600;1.480;2023-06-14T09:11:17;24.80;1.00
14924;DHT22;7554;43.600;1.480;2023-06-14T09:13:46;24.60;1.00
14924;DHT22;7554;43.600;1.480;2023-06-14T09:16:13;26.20;1.00
14924;DHT22;7554;43.600;1.480;2023-06-14T09:18:43;25.10;1.00
14924;DHT22;7554;43.600;1.480;2023-06-14T09:21:16;24.30;1.00
14924;DHT22;7554;43.600;1.480;2023-06-14T09:23:44;23.80;1.00
14924;DHT22;7554;43.600;1.480;2023-06-14T09:26:13;24.00;1.00
14924;DHT22;7554;43.600;1.480;2023-06-14T09:28:44;24.80;1.00
14924;DHT22;7554;43.600;1.480;2023-06-14T09:31:11;26.90;1.00
14924;DHT22;7554;43.600;1.480;2023-06-14T09:33:41;27.30;1.00
14924;DHT22;7554;43.600;1.480;2023-06-14T09:36:11;29.80;1.00
14924;DHT22;7554;43.600;1.480;2023-06-14T09:38:41;28.30;1.00
14924;DHT22;7554;43.600;1.480;2023-06-14T09:41:08;28.30;1.00
14924;DHT22;7554;43.600;1.480;2023-06-14T09:43:36;27.20;1.00
14924;DHT22;7554;43.600;1.480;2023-06-14T09:46:05;27.70;1.00
14924;DHT22;7554;43.600;1.480;2023-06-14T09:48:33;26.80;1.00
14924;DHT22;7554;43.600;1.480;2023-06-14T09:51:01;26.20;1.00
14924;DHT22;7554;43.600;1.480;2023-06-14T09:53:30;25.30;1.00
14924;DHT22;7554;43.600;1.480;2023-06-14T09:56:00;24.80;1.00
14924;DHT22;7554;43.600;1.480;2023-06-14T09:58:28;26.80;1.00
14924;DHT22;7554;43.600;1.480;2023-06-14T10:00:57;26.80;1.00
14924;DHT22;7554;43.600;1.480;2023-06-14T10:03:29;26.70;1.00
14924;DHT22;7554;43.600;1.480;2023-06-14T10:05:58;26.80;1.00
14924;DHT22;7554;43.600;1.480;2023-06-14T10:08:31;26.70;1.00
14924;DHT22;7554;43.600;1.480;2023-06-14T10:11:01;26.40;1.00
14924;DHT22;7554;43.600;1.480;2023-06-14T10:13:32;26.40;1.00
14924;DHT22;7554;43.600;1.480;2023-06-14T10:16:07;26.50;1.00
14924;DHT22;7554;43.600;1.480;2023-06-14T10:18:43;26.30;1.00
14924;DHT22;7554;43.600;1.480;2023-06-14T10:21:21;26.60;1.00
14924;DHT22;7554;43.600;1.480;2023-06-14T10:23:50;27.10;1.00
14924;DHT22;7554;43.600;1.480;2023-06-14T10:26:22;27.60;1.00
14924;DHT22;7554;43.600;1.480;2023-06-14T10:28:58;27.40;1.00
14924;DHT22;7554;43.600;1.480;2023-06-14T10:31:43;26.90;1.00
14924;DHT22;7554;43.600;1.480;2023-06-14T10:34:11;26.90;1.00
14924;DHT22;7554;43.600;1.480;2023-06-14T10:36:41;27.30;1.00
14924;DHT22;7554;43.600;1.480;2023-06-14T10:39:14;27.40;1.00
14924;DHT22;7554;43.600;1.480;2023-06-14T10:41:51;27.30;1.00
14924;DHT22;7554;43.600;1.480;2023-06-14T10:44:38;27.20;1.00
14924;DHT22;7554;43.600;1.480;2023-06-14T10:47:10;27.40;1.00
14924;DHT22;7554;43.600;1.480;2023-06-14T10:49:42;27.50;1.00
14924;DHT22;7554;43.600;1.480;2023-06-14T10:52:12;27.70;1.00
14924;DHT22;7554;43.600;1.480;2023-06-14T10:55:00;27.50;1.00
14924;DHT22;7554;43.600;1.480;2023-06-14T10:57:31;27.90;1.00
14924;DHT22;7554;43.600;1.480;2023-06-14T10:59:59;28.20;1.00
14924;DHT22;7554;43.600;1.480;2023-06-14T11:03:12;28.10;1.00
14924;DHT22;7554;43.600;1.480;2023-06-14T11:05:51;27.70;1.00
14924;DHT22;7554;43.600;1.480;2023-06-14T11:08:39;27.60;1.00
14924;DHT22;7554;43.600;1.480;2023-06-14T11:11:08;27.20;1.00
14924;DHT22;7554;43.600;1.480;2023-06-14T11:13:39;27.30;1.00
14924;DHT22;7554;43.600;1.480;2023-06-14T11:16:11;27.50;1.00
14924;DHT22;7554;43.600;1.480;2023-06-14T11:18:39;27.60;1.00
14924;DHT22;7554;43.600;1.480;2023-06-14T11:21:06;27.60;1.00
14924;DHT22;7554;43.600;1.480;2023-06-14T11:23:34;27.70;1.00
14924;DHT22;7554;43.600;1.480;2023-06-14T11:26:01;27.80;1.00
14924;DHT22;7554;43.600;1.480;2023-06-14T11:28:39;27.50;1.00
14924;DHT22;7554;43.600;1.480;2023-06-14T11:31:07;27.40;1.00
14924;DHT22;7554;43.600;1.480;2023-06-14T11:33:35;27.40;1.00
14924;DHT22;7554;43.600;1.480;2023-06-14T11:36:03;27.50;1.00
14924;DHT22;7554;43.600;1.480;2023-06-14T11:38:35;27.70;1.00
14924;DHT22;7554;43.600;1.480;2023-06-14T11:41:03;27.30;1.00
14924;DHT22;7554;43.600;1.480;2023-06-14T11:43:31;27.30;1.00
14924;DHT22;7554;43.600;1.480;2023-06-14T11:46:02;27.20;1.00
14924;DHT22;7554;43.600;1.480;2023-06-14T11:48:39;27.40;1.00
14924;DHT22;7554;43.600;1.480;2023-06-14T11:51:06;27.70;1.00
14924;DHT22;7554;43.600;1.480;2023-06-14T11:53:34;27.50;1.00
14924;DHT22;7554;43.600;1.480;2023-06-14T11:56:01;27.60;1.00
14924;DHT22;7554;43.600;1.480;2023-06-14T11:58:29;27.60;1.00
14924;DHT22;7554;43.600;1.480;2023-06-14T12:00:57;27.50;1.00
14924;DHT22;7554;43.600;1.480;2023-06-14T12:03:26;27.30;1.00
14924;DHT22;7554;43.600;1.480;2023-06-14T12:06:04;27.60;1.00
14924;DHT22;7554;43.600;1.480;2023-06-14T12:08:34;27.90;1.00
14924;DHT22;7554;43.600;1.480;2023-06-14T12:11:04;27.60;1.00
14924;DHT22;7554;43.600;1.480;2023-06-14T12:13:34;27.40;1.00
14924;DHT22;7554;43.600;1.480;2023-06-14T12:16:04;27.30;1.00
14924;DHT22;7554;43.600;1.480;2023-06-14T12:18:34;27.40;1.00
14924;DHT22;7554;43.600;1.480;2023-06-14T12:21:03;27.60;1.00
14924;DHT22;7554;43.600;1.480;2023-06-14T12:23:45;27.80;1.00
14924;DHT22;7554;43.600;1.480;2023-06-14T12:26:14;28.00;1.00
14924;DHT22;7554;43.600;1.480;2023-06-14T12:28:42;27.90;1.00
14924;DHT22;7554;43.600;1.480;2023-06-14T12:31:11;28.20;1.00
14924;DHT22;7554;43.600;1.480;2023-06-14T12:33:41;28.40;1.00
14924;DHT22;7554;43.600;1.480;2023-06-14T12:36:09;28.10;1.00
14924;DHT22;7554;43.600;1.480;2023-06-14T12:38:37;27.90;1.00
14924;DHT22;7554;43.600;1.480;2023-06-14T12:41:07;27.90;1.00
14924;DHT22;7554;43.600;1.480;2023-06-14T12:43:34;27.90;1.00
14924;DHT22;7554;43.600;1.480;2023-06-14T12:46:01;27.70;1.00
14924;DHT22;7554;43.600;1.480;2023-06-14T12:48:29;27.50;1.00
14924;DHT22;7554;43.600;1.480;2023-06-14T12:50:58;27.50;1.00
14924;DHT22;7554;43.600;1.480;2023-06-14T12:53:25;27.60;1.00
14924;DHT22;7554;43.600;1.480;2023-06-14T12:55:53;27.80;1.00
14924;DHT22;7554;43.600;1.480;2023-06-14T12:58:20;28.00;1.00
14924;DHT22;7554;43.600;1.480;2023-06-14T13:00:49;28.20;1.00
14924;DHT22;7554;43.600;1.480;2023-06-14T13:03:16;28.40;1.00
14924;DHT22;7554;43.600;1.480;2023-06-14T13:05:44;28.30;1.00
14924;DHT22;7554;43.600;1.480;2023-06-14T13:08:13;28.10;1.00
14924;DHT22;7554;43.600;1.480;2023-06-14T13:10:40;27.80;1.00
14924;DHT22;7554;43.600;1.480;2023-06-14T13:13:07;27.70;1.00
14924;DHT22;7554;43.600;1.480;2023-06-14T13:15:35;27.80;1.00
14924;DHT22;7554;43.600;1.480;2023-06-14T13:18:02;28.10;1.00
14924;DHT22;7554;43.600;1.480;2023-06-14T13:20:30;28.10;1.00
14924;DHT22;7554;43.600;1.480;2023-06-14T13:22:57;28.20;1.00
14924;DHT22;7554;43.600;1.480;2023-06-14T13:25:26;28.20;1.00
14924;DHT22;7554;43.600;1.480;2023-06-14T13:27:53;28.40;1.00
14924;DHT22;7554;43.600;1.480;2023-06-14T13:30:21;28.40;1.00
14924;DHT22;7554;43.600;1.480;2023-06-14T13:32:48;28.30;1.00
14924;DHT22;7554;43.600;1.480;2023-06-14T13:35:17;28.40;1.00
14924;DHT22;7554;43.600;1.480;2023-06-14T13:37:45;28.10;1.00
14924;DHT22;7554;43.600;1.480;2023-06-14T13:40:12;28.00;1.00
14924;DHT22;7554;43.600;1.480;2023-06-14T13:42:41;28.20;1.00
14924;DHT22;7554;43.600;1.480;2023-06-14T13:45:11;28.50;1.00
14924;DHT22;7554;43.600;1.480;2023-06-14T13:47:38;28.70;1.00
14924;DHT22;7554;43.600;1.480;2023-06-14T13:50:06;28.80;1.00
14924;DHT22;7554;43.600;1.480;2023-06-14T13:52:34;28.90;1.00
14924;DHT22;7554;43.600;1.480;2023-06-14T13:55:01;29.00;1.00
14924;DHT22;7554;43.600;1.480;2023-06-14T13:57:29;29.00;1.00
14924;DHT22;7554;43.600;1.480;2023-06-14T13:59:58;28.70;1.00
14924;DHT22;7554;43.600;1.480;2023-06-14T14:02:27;28.40;1.00
14924;DHT22;7554;43.600;1.480;2023-06-14T14:04:55;28.40;1.00
14924;DHT22;7554;43.600;1.480;2023-06-14T14:07:23;28.20;1.00
14924;DHT22;7554;43.600;1.480;2023-06-14T14:09:50;28.40;1.00
14924;DHT22;7554;43.600;1.480;2023-06-14T14:12:19;28.40;1.00
14924;DHT22;7554;43.600;1.480;2023-06-14T14:14:46;28.30;1.00
14924;DHT22;7554;43.600;1.480;2023-06-14T14:17:15;28.20;1.00
14924;DHT22;7554;43.600;1.480;2023-06-14T14:19:42;28.40;1.00
14924;DHT22;7554;43.600;1.480;2023-06-14T14:22:09;28.40;1.00
14924;DHT22;7554;43.600;1.480;2023-06-14T14:24:36;28.10;1.00
14924;DHT22;7554;43.600;1.480;2023-06-14T14:27:04;27.90;1.00
14924;DHT22;7554;43.600;1.480;2023-06-14T14:29:32;28.00;1.00
14924;DHT22;7554;43.600;1.480;2023-06-14T14:32:00;27.90;1.00
14924;DHT22;7554;43.600;1.480;2023-06-14T14:34:29;28.00;1.00
14924;DHT22;7554;43.600;1.480;2023-06-14T14:36:56;28.10;1.00
14924;DHT22;7554;43.600;1.480;2023-06-14T14:39:23;28.30;1.00
14924;DHT22;7554;43.600;1.480;2023-06-14T14:41:51;28.30;1.00
14924;DHT22;7554;43.600;1.480;2023-06-14T14:44:18;28.30;1.00
14924;DHT22;7554;43.600;1.480;2023-06-14T14:46:45;28.30;1.00
14924;DHT22;7554;43.600;1.480;2023-06-14T14:49:12;28.50;1.00
14924;DHT22;7554;43.600;1.480;2023-06-14T14:51:41;28.30;1.00
14924;DHT22;7554;43.600;1.480;2023-06-14T14:54:08;28.10;1.00
14924;DHT22;7554;43.600;1.480;2023-06-14T14:56:37;27.70;1.00
14924;DHT22;7554;43.600;1.480;2023-06-14T14:59:04;27.40;1.00
14924;DHT22;7554;43.600;1.480;2023-06-14T15:01:32;27.30;1.00
14924;DHT22;7554;43.600;1.480;2023-06-14T15:03:59;27.30;1.00
14924;DHT22;7554;43.600;1.480;2023-06-14T15:06:26;27.50;1.00
14924;DHT22;7554;43.600;1.480;2023-06-14T15:08:56;27.70;1.00
14924;DHT22;7554;43.600;1.480;2023-06-14T15:11:24;27.80;1.00
14924;DHT22;7554;43.600;1.480;2023-06-14T15:13:51;28.30;1.00
14924;DHT22;7554;43.600;1.480;2023-06-14T15:16:19;27.90;1.00
14924;DHT22;7554;43.600;1.480;2023-06-14T15:18:46;27.70;1.00
14924;DHT22;7554;43.600;1.480;2023-06-14T15:21:13;27.80;1.00
14924;DHT22;7554;43.600;1.480;2023-06-14T15:23:41;27.60;1.00
14924;DHT22;7554;43.600;1.480;2023-06-14T15:26:09;27.40;1.00
14924;DHT22;7554;43.600;1.480;2023-06-14T15:28:37;27.30;1.00
14924;DHT22;7554;43.600;1.480;2023-06-14T15:31:05;27.10;1.00
14924;DHT22;7554;43.600;1.480;2023-06-14T15:33:33;27.10;1.00
14924;DHT22;7554;43.600;1.480;2023-06-14T15:36:00;27.30;1.00
14924;DHT22;7554;43.600;1.480;2023-06-14T15:38:28;27.20;1.00
14924;DHT22;7554;43.600;1.480;2023-06-14T15:40:55;27.00;1.00
14924;DHT22;7554;43.600;1.480;2023-06-14T15:43:25;27.00;1.00
14924;DHT22;7554;43.600;1.480;2023-06-14T15:45:52;26.80;1.00
14924;DHT22;7554;43.600;1.480;2023-06-14T15:48:19;26.70;1.00
14924;DHT22;7554;43.600;1.480;2023-06-14T15:50:46;26.70;1.00
14924;DHT22;7554;43.600;1.480;2023-06-14T15:53:14;26.70;1.00
14924;DHT22;7554;43.600;1.480;2023-06-14T15:55:41;26.60;1.00
14924;DHT22;7554;43.600;1.480;2023-06-14T15:58:09;26.70;1.00
14924;DHT22;7554;43.600;1.480;2023-06-14T16:00:37;26.70;1.00
14924;DHT22;7554;43.600;1.480;2023-06-14T16:03:05;26.70;1.00
14924;DHT22;7554;43.600;1.480;2023-06-14T16:05:32;26.60;1.00
14924;DHT22;7554;43.600;1.480;2023-06-14T16:07:59;26.60;1.00
14924;DHT22;7554;43.600;1.480;2023-06-14T16:10:26;26.40;1.00